createdAt,value
2022-09-27T00:02:02.716Z,11.00
2022-09-27T00:04:29.911Z,11.00
2022-09-27T00:06:57.102Z,11.00
2022-09-27T00:09:24.151Z,10.90
2022-09-27T00:11:51.152Z,10.90
2022-09-27T00:14:18.517Z,10.80
2022-09-27T00:16:45.706Z,10.90
2022-09-27T00:19:20.380Z,10.90
2022-09-27T00:21:47.534Z,11.00
2022-09-27T00:24:15.846Z,11.00
2022-09-27T00:26:43.529Z,11.00
2022-09-27T00:29:11.277Z,11.00
2022-09-27T00:31:40.105Z,11.10
2022-09-27T00:34:11.703Z,11.10
2022-09-27T00:36:38.911Z,11.10
2022-09-27T00:39:06.156Z,11.10
2022-09-27T00:41:35.442Z,11.10
2022-09-27T00:44:04.855Z,11.10
2022-09-27T00:46:45.687Z,11.10
2022-09-27T00:49:26.495Z,11.10
2022-09-27T00:52:00.840Z,11.20
2022-09-27T00:54:28.122Z,11.20
2022-09-27T00:56:55.559Z,11.20
2022-09-27T00:59:28.198Z,11.10
2022-09-27T01:01:55.497Z,11.00
2022-09-27T01:04:24.566Z,10.90
2022-09-27T01:06:53.159Z,10.90
2022-09-27T01:09:21.549Z,10.80
2022-09-27T01:12:13.943Z,10.70
2022-09-27T01:14:59.902Z,10.80
2022-09-27T01:17:31.147Z,10.80
2022-09-27T01:20:22.193Z,10.80
2022-09-27T01:23:18.681Z,10.90
2022-09-27T01:26:01.739Z,11.00
2022-09-27T01:28:55.260Z,11.00
2022-09-27T01:31:22.365Z,11.00
2022-09-27T01:33:49.607Z,11.00
2022-09-27T01:36:21.056Z,11.00
2022-09-27T01:39:01.777Z,10.90
2022-09-27T01:41:59.758Z,10.90
2022-09-27T01:44:43.472Z,10.90
2022-09-27T01:47:25.077Z,10.90
2022-09-27T01:50:11.328Z,10.90
2022-09-27T01:52:44.760Z,10.90
2022-09-27T01:55:12.447Z,10.80
2022-09-27T01:58:15.150Z,10.80
2022-09-27T02:00:45.568Z,10.80
2022-09-27T02:03:15.050Z,10.60
2022-09-27T02:06:02.882Z,10.60
2022-09-27T02:09:17.503Z,10.50
2022-09-27T02:12:09.525Z,10.40
2022-09-27T02:14:47.761Z,10.30
2022-09-27T02:17:35.697Z,10.10
2022-09-27T02:20:19.365Z,10.10
2022-09-27T02:23:03.069Z,10.00
2022-09-27T02:25:47.318Z,10.00
2022-09-27T02:28:40.809Z,10.00
2022-09-27T02:31:10.099Z,10.00
2022-09-27T02:33:44.256Z,9.90
2022-09-27T02:36:11.729Z,9.90
2022-09-27T02:38:38.942Z,9.90
2022-09-27T02:41:17.474Z,9.90
2022-09-27T02:43:45.723Z,9.90
2022-09-27T02:46:26.377Z,9.90
2022-09-27T02:49:04.459Z,9.90
2022-09-27T02:51:35.053Z,9.90
2022-09-27T02:54:02.162Z,9.80
2022-09-27T02:57:03.836Z,9.70
2022-09-27T03:00:09.641Z,9.70
2022-09-27T03:03:19.572Z,9.60
2022-09-27T03:06:13.998Z,9.50
2022-09-27T03:08:42.184Z,9.50
2022-09-27T03:11:09.318Z,9.40
2022-09-27T03:14:01.327Z,9.40
2022-09-27T03:16:27.936Z,9.40
2022-09-27T03:19:10.461Z,9.30
2022-09-27T03:22:01.573Z,9.30
2022-09-27T03:24:28.638Z,9.30
2022-09-27T03:26:55.679Z,9.30
2022-09-27T03:29:22.996Z,9.30
2022-09-27T03:31:59.194Z,9.30
2022-09-27T03:34:41.329Z,9.20
2022-09-27T03:37:08.584Z,9.20
2022-09-27T03:39:35.966Z,9.20
2022-09-27T03:42:03.507Z,9.10
2022-09-27T03:44:33.839Z,9.10
2022-09-27T03:47:04.063Z,9.10
2022-09-27T03:49:32.862Z,9.00
2022-09-27T03:52:00.030Z,9.00
2022-09-27T03:54:27.268Z,8.90
2022-09-27T03:56:54.401Z,8.90
2022-09-27T03:59:21.760Z,8.90
2022-09-27T04:02:24.325Z,8.90
2022-09-27T04:05:14.525Z,8.90
2022-09-27T04:07:49.686Z,8.90
2022-09-27T04:10:18.458Z,8.80
2022-09-27T04:12:45.826Z,8.80
2022-09-27T04:15:13.207Z,8.80
2022-09-27T04:17:49.301Z,8.80
2022-09-27T04:20:35.538Z,8.90
2022-09-27T04:23:14.070Z,8.80
2022-09-27T04:25:48.609Z,8.80
2022-09-27T04:28:21.666Z,8.80
2022-09-27T04:30:49.952Z,8.80
2022-09-27T04:33:51.163Z,8.80
2022-09-27T04:36:28.053Z,8.80
2022-09-27T04:39:03.873Z,8.80
2022-09-27T04:41:31.831Z,8.90
2022-09-27T04:44:01.581Z,9.00
2022-09-27T04:46:32.259Z,9.00
2022-09-27T04:49:03.300Z,9.20
2022-09-27T04:51:32.841Z,9.20
2022-09-27T04:54:02.061Z,9.30
2022-09-27T04:56:33.135Z,9.30
2022-09-27T04:59:01.834Z,9.40
2022-09-27T05:01:33.189Z,9.40
2022-09-27T05:04:18.148Z,9.30
2022-09-27T05:06:51.519Z,9.30
2022-09-27T05:09:28.909Z,9.20
2022-09-27T05:11:57.460Z,9.20
2022-09-27T05:14:46.787Z,9.20
2022-09-27T05:17:16.539Z,9.10
2022-09-27T05:19:43.861Z,9.10
2022-09-27T05:22:28.655Z,9.20
2022-09-27T05:24:56.124Z,9.20
2022-09-27T05:27:25.067Z,9.30
2022-09-27T05:29:52.542Z,9.30
2022-09-27T05:32:25.352Z,9.40
2022-09-27T05:35:13.016Z,9.40
2022-09-27T05:37:42.845Z,9.40
2022-09-27T05:40:29.485Z,9.50
2022-09-27T05:42:57.578Z,9.50
2022-09-27T05:45:25.023Z,9.60
2022-09-27T05:47:54.786Z,9.60
2022-09-27T05:50:22.452Z,9.60
2022-09-27T05:52:49.918Z,9.60
2022-09-27T05:55:19.143Z,9.70
2022-09-27T05:58:03.299Z,9.70
2022-09-27T06:00:39.972Z,9.70
2022-09-27T06:03:27.314Z,9.80
2022-09-27T06:06:29.668Z,9.80
2022-09-27T06:11:30.760Z,9.90
2022-09-27T06:13:58.094Z,9.90
2022-09-27T06:16:27.282Z,9.90
2022-09-27T06:18:54.444Z,10.00
2022-09-27T06:21:22.783Z,10.00
2022-09-27T06:23:56.599Z,10.00
2022-09-27T06:26:29.978Z,10.10
2022-09-27T06:29:20.036Z,10.10
2022-09-27T06:31:52.966Z,10.10
2022-09-27T06:34:34.865Z,10.20
2022-09-27T06:37:01.944Z,10.20
2022-09-27T06:39:29.967Z,10.20
2022-09-27T06:42:23.460Z,10.20
2022-09-27T06:44:54.722Z,10.20
2022-09-27T06:47:40.534Z,10.20
2022-09-27T06:50:34.865Z,10.20
2022-09-27T06:53:05.420Z,10.20
2022-09-27T06:55:33.293Z,10.30
2022-09-27T06:58:19.804Z,10.30
2022-09-27T07:01:07.094Z,10.40
2022-09-27T07:03:53.333Z,10.40
2022-09-27T07:06:43.825Z,10.40
2022-09-27T07:09:25.192Z,10.40
2022-09-27T07:11:55.417Z,10.50
2022-09-27T07:14:22.967Z,10.50
2022-09-27T07:16:50.796Z,10.50
2022-09-27T07:19:19.122Z,10.60
2022-09-27T07:23:02.035Z,10.60
2022-09-27T07:25:32.587Z,10.60
2022-09-27T07:28:05.172Z,10.70
2022-09-27T07:30:33.869Z,10.70
2022-09-27T07:33:03.397Z,10.70
2022-09-27T07:35:33.537Z,10.80
2022-09-27T07:38:04.871Z,10.80
2022-09-27T07:40:32.913Z,10.90
2022-09-27T07:43:05.211Z,11.00
2022-09-27T07:45:36.138Z,11.10
2022-09-27T07:48:31.671Z,11.20
2022-09-27T07:51:17.249Z,11.20
2022-09-27T07:54:08.580Z,11.30
2022-09-27T07:57:04.435Z,11.40
2022-09-27T07:59:32.768Z,11.40
2022-09-27T08:02:01.519Z,11.50
2022-09-27T08:04:30.265Z,11.50
2022-09-27T08:06:57.751Z,11.40
2022-09-27T08:09:26.502Z,11.50
2022-09-27T08:11:58.576Z,11.50
2022-09-27T08:14:48.537Z,11.60
2022-09-27T08:17:17.329Z,11.70
2022-09-27T08:20:12.904Z,11.70
2022-09-27T08:23:12.847Z,11.70
2022-09-27T08:26:22.629Z,11.80
2022-09-27T08:28:56.594Z,11.80
2022-09-27T08:31:28.253Z,12.00
2022-09-27T08:33:58.634Z,12.00
2022-09-27T08:36:34.191Z,11.90
2022-09-27T08:39:10.890Z,12.00
2022-09-27T08:42:03.732Z,12.10
2022-09-27T08:44:58.672Z,12.20
2022-09-27T08:47:38.774Z,12.40
2022-09-27T08:50:32.672Z,12.40
2022-09-27T08:53:14.295Z,12.50
2022-09-27T08:55:48.245Z,12.50
2022-09-27T08:58:31.651Z,12.60
2022-09-27T09:01:07.214Z,12.60
2022-09-27T09:03:47.232Z,12.70
2022-09-27T09:06:39.613Z,12.80
2022-09-27T09:09:51.272Z,12.80
2022-09-27T09:12:49.035Z,13.00
2022-09-27T09:16:02.261Z,13.20
2022-09-27T09:19:19.009Z,13.20
2022-09-27T09:22:26.143Z,13.30
2022-09-27T09:25:05.524Z,13.40
2022-09-27T09:27:32.682Z,13.50
2022-09-27T09:30:07.852Z,13.50
2022-09-27T09:33:21.372Z,13.50
2022-09-27T09:36:01.037Z,13.50
2022-09-27T09:38:55.735Z,13.60
2022-09-27T09:41:43.824Z,13.70
2022-09-27T09:44:23.987Z,13.80
2022-09-27T09:47:06.411Z,13.90
2022-09-27T09:49:45.351Z,13.80
2022-09-27T09:52:28.651Z,13.70
2022-09-27T09:55:08.770Z,13.80
2022-09-27T09:58:07.476Z,13.70
2022-09-27T10:00:47.040Z,13.70
2022-09-27T10:03:16.094Z,13.60
2022-09-27T10:05:46.058Z,13.50
2022-09-27T10:08:18.445Z,13.40
2022-09-27T10:10:48.182Z,13.50
2022-09-27T10:13:36.580Z,13.60
2022-09-27T10:16:10.095Z,13.80
2022-09-27T10:18:39.655Z,14.00
2022-09-27T10:21:14.441Z,14.00
2022-09-27T10:24:12.308Z,13.90
2022-09-27T10:27:00.313Z,14.00
2022-09-27T10:29:37.673Z,14.10
2022-09-27T10:32:43.976Z,14.30
2022-09-27T10:35:38.956Z,14.50
2022-09-27T10:38:26.938Z,14.70
2022-09-27T10:41:33.394Z,15.00
2022-09-27T10:44:27.446Z,15.20
2022-09-27T10:47:23.691Z,15.20
2022-09-27T10:50:08.085Z,15.10
2022-09-27T10:53:19.093Z,14.80
2022-09-27T10:55:54.203Z,14.60
2022-09-27T10:58:41.903Z,14.50
2022-09-27T11:01:13.548Z,14.40
2022-09-27T11:04:06.598Z,14.40
2022-09-27T11:06:38.514Z,14.50
2022-09-27T11:09:19.207Z,14.60
2022-09-27T11:11:49.461Z,14.70
2022-09-27T11:14:24.414Z,14.70
2022-09-27T11:17:24.676Z,14.70
2022-09-27T11:20:07.598Z,14.70
2022-09-27T11:22:55.990Z,14.90
2022-09-27T11:25:54.499Z,15.00
2022-09-27T11:28:21.615Z,14.80
2022-09-27T11:31:26.202Z,14.70
2022-09-27T11:34:15.573Z,14.50
2022-09-27T11:37:02.593Z,13.70
2022-09-27T11:39:51.488Z,13.00
2022-09-27T11:42:51.628Z,12.70
2022-09-27T11:46:15.211Z,12.60
2022-09-27T11:49:08.356Z,12.50
2022-09-27T11:52:11.378Z,12.70
2022-09-27T11:55:04.648Z,12.80
2022-09-27T11:57:43.883Z,12.90
2022-09-27T12:00:13.642Z,12.90
2022-09-27T12:03:05.491Z,12.90
2022-09-27T12:05:58.156Z,12.90
2022-09-27T12:09:06.274Z,12.90
2022-09-27T12:11:36.773Z,12.90
2022-09-27T12:14:18.034Z,13.10
2022-09-27T12:17:11.333Z,13.30
2022-09-27T12:20:04.889Z,13.30
2022-09-27T12:23:06.136Z,13.50
2022-09-27T12:26:36.776Z,13.60
2022-09-27T12:29:41.339Z,13.50
2022-09-27T12:32:18.248Z,13.40
2022-09-27T12:34:56.187Z,13.30
2022-09-27T12:37:36.225Z,13.20
2022-09-27T12:40:22.516Z,13.30
2022-09-27T12:43:19.161Z,13.50
2022-09-27T12:46:34.550Z,13.70
2022-09-27T12:54:06.195Z,13.70
2022-09-27T12:56:48.216Z,13.70
2022-09-27T12:59:54.541Z,13.70
2022-09-27T13:03:15.277Z,13.70
2022-09-27T13:06:15.846Z,13.60
2022-09-27T13:09:17.888Z,13.80
2022-09-27T13:12:11.144Z,13.90
2022-09-27T13:14:54.711Z,14.00
2022-09-27T13:17:46.364Z,14.10
2022-09-27T13:20:34.877Z,14.10
2022-09-27T13:23:18.462Z,14.00
2022-09-27T13:25:55.443Z,14.10
2022-09-27T13:28:55.100Z,14.10
2022-09-27T13:31:58.067Z,14.20
2022-09-27T13:34:46.925Z,14.20
2022-09-27T13:37:37.975Z,14.10
2022-09-27T13:40:16.664Z,14.00
2022-09-27T13:43:34.722Z,13.90
2022-09-27T13:46:10.986Z,13.90
2022-09-27T13:49:01.898Z,13.70
2022-09-27T13:51:58.430Z,13.80
2022-09-27T13:54:50.469Z,13.90
2022-09-27T13:57:47.307Z,14.10
2022-09-27T14:00:26.088Z,14.10
2022-09-27T14:03:22.311Z,13.90
2022-09-27T14:06:05.423Z,14.00
2022-09-27T14:08:57.401Z,14.00
2022-09-27T14:11:35.474Z,14.20
2022-09-27T14:14:03.284Z,14.30
2022-09-27T14:16:36.316Z,14.30
2022-09-27T14:19:04.208Z,14.20
2022-09-27T14:21:38.770Z,14.10
2022-09-27T14:24:31.166Z,14.10
2022-09-27T14:27:35.179Z,14.10
2022-09-27T14:30:16.107Z,14.00
2022-09-27T14:32:48.452Z,14.00
2022-09-27T14:35:43.554Z,14.00
2022-09-27T14:38:35.972Z,13.90
2022-09-27T14:41:04.221Z,13.80
2022-09-27T14:43:35.271Z,13.70
2022-09-27T14:46:07.285Z,13.70
2022-09-27T14:48:39.066Z,13.70
2022-09-27T14:51:14.694Z,13.70
2022-09-27T14:53:58.612Z,13.70
2022-09-27T14:56:33.296Z,13.70
2022-09-27T14:59:11.528Z,13.70
2022-09-27T15:01:40.238Z,13.70
2022-09-27T15:04:08.636Z,13.80
2022-09-27T15:06:36.891Z,13.80
2022-09-27T15:09:05.178Z,13.80
2022-09-27T15:11:33.459Z,13.90
2022-09-27T15:14:02.283Z,13.90
2022-09-27T15:16:33.251Z,14.00
2022-09-27T15:19:28.201Z,14.00
2022-09-27T15:21:57.415Z,13.90
2022-09-27T15:24:47.035Z,13.90
2022-09-27T15:27:22.201Z,13.80
2022-09-27T15:29:54.014Z,13.80
2022-09-27T15:32:23.886Z,13.70
2022-09-27T15:34:51.121Z,13.60
2022-09-27T15:37:38.842Z,13.50
2022-09-27T15:40:32.090Z,13.20
2022-09-27T15:43:03.799Z,13.00
2022-09-27T15:45:34.843Z,12.80
2022-09-27T15:48:19.041Z,12.70
2022-09-27T15:50:47.243Z,12.70
2022-09-27T15:53:34.594Z,12.60
2022-09-27T15:56:02.947Z,12.60
2022-09-27T15:58:33.459Z,12.60
2022-09-27T16:01:08.378Z,12.60
2022-09-27T16:03:39.058Z,12.60
2022-09-27T16:06:06.380Z,12.60
2022-09-27T16:08:33.826Z,12.60
2022-09-27T16:11:05.834Z,12.50
2022-09-27T16:13:33.501Z,12.50
2022-09-27T16:16:03.908Z,12.50
2022-09-27T16:18:33.893Z,12.50
2022-09-27T16:21:01.799Z,12.60
2022-09-27T16:23:32.082Z,12.60
2022-09-27T16:26:01.828Z,12.50
2022-09-27T16:28:30.956Z,12.50
2022-09-27T16:31:05.537Z,12.50
2022-09-27T16:33:32.981Z,12.40
2022-09-27T16:36:02.597Z,12.40
2022-09-27T16:38:32.168Z,12.30
2022-09-27T16:41:03.533Z,12.30
2022-09-27T16:43:34.186Z,12.30
2022-09-27T16:46:06.055Z,12.30
2022-09-27T16:48:33.345Z,12.20
2022-09-27T16:51:26.541Z,12.20
2022-09-27T16:53:54.532Z,12.20
2022-09-27T16:56:28.239Z,12.20
2022-09-27T16:58:55.436Z,12.20
2022-09-27T17:01:22.808Z,12.10
2022-09-27T17:03:54.451Z,12.10
2022-09-27T17:06:24.426Z,12.10
2022-09-27T17:08:58.082Z,12.10
2022-09-27T17:11:25.563Z,12.00
2022-09-27T17:13:56.545Z,12.00
2022-09-27T17:16:24.465Z,12.00
2022-09-27T17:18:52.022Z,12.00
2022-09-27T17:21:25.756Z,12.00
2022-09-27T17:24:01.074Z,11.90
2022-09-27T17:26:31.209Z,11.90
2022-09-27T17:29:01.002Z,11.90
2022-09-27T17:31:30.361Z,11.80
2022-09-27T17:34:00.225Z,11.70
2022-09-27T17:36:34.671Z,11.70
2022-09-27T17:39:05.823Z,11.70
2022-09-27T17:41:39.604Z,11.60
2022-09-27T17:44:07.742Z,11.50
2022-09-27T17:46:36.630Z,11.30
2022-09-27T17:49:22.944Z,11.20
2022-09-27T17:51:52.404Z,11.10
2022-09-27T17:54:23.753Z,11.10
2022-09-27T17:56:54.248Z,11.10
2022-09-27T17:59:21.457Z,11.00
2022-09-27T18:01:51.388Z,11.00
2022-09-27T18:04:19.889Z,11.00
2022-09-27T18:06:49.745Z,11.00
2022-09-27T18:09:17.533Z,11.00
2022-09-27T18:11:45.505Z,11.00
2022-09-27T18:14:12.906Z,11.00
2022-09-27T18:16:44.448Z,10.90
2022-09-27T18:19:15.741Z,10.80
2022-09-27T18:21:43.235Z,10.80
2022-09-27T18:24:11.317Z,10.70
2022-09-27T18:26:39.392Z,10.70
2022-09-27T18:29:10.998Z,10.60
2022-09-27T18:31:40.259Z,10.60
2022-09-27T18:34:08.663Z,10.60
2022-09-27T18:36:37.571Z,10.60
2022-09-27T18:39:05.989Z,10.60
2022-09-27T18:41:34.077Z,10.50
2022-09-27T18:44:05.646Z,10.50
2022-09-27T18:46:37.457Z,10.40
2022-09-27T18:49:09.483Z,10.40
2022-09-27T18:51:37.967Z,10.30
2022-09-27T18:54:07.124Z,10.30
2022-09-27T18:56:41.879Z,10.20
2022-09-27T18:59:09.508Z,10.20
2022-09-27T19:01:39.931Z,10.20
2022-09-27T19:04:08.441Z,10.10
2022-09-27T19:06:36.077Z,10.10
2022-09-27T19:09:04.119Z,10.10
2022-09-27T19:11:37.794Z,10.10
2022-09-27T19:14:05.014Z,10.10
2022-09-27T19:16:32.222Z,10.20
2022-09-27T19:18:59.936Z,10.20
2022-09-27T19:21:28.365Z,10.20
2022-09-27T19:23:58.736Z,10.20
2022-09-27T19:26:26.280Z,10.20
2022-09-27T19:28:53.554Z,10.20
2022-09-27T19:31:25.129Z,10.20
2022-09-27T19:33:56.306Z,10.20
2022-09-27T19:36:27.026Z,10.20
2022-09-27T19:38:56.593Z,10.10
2022-09-27T19:41:23.638Z,10.10
2022-09-27T19:43:54.165Z,10.00
2022-09-27T19:46:22.111Z,10.00
2022-09-27T19:48:50.003Z,9.90
2022-09-27T19:51:22.360Z,9.90
2022-09-27T19:53:50.014Z,9.90
2022-09-27T19:56:19.014Z,9.90
2022-09-27T19:58:46.367Z,10.00
2022-09-27T20:01:21.174Z,10.00
2022-09-27T20:03:52.496Z,10.00
2022-09-27T20:06:20.106Z,10.00
2022-09-27T20:08:48.123Z,10.00
2022-09-27T20:11:23.059Z,10.00
2022-09-27T20:13:52.785Z,10.00
2022-09-27T20:16:24.064Z,10.00
2022-09-27T20:18:52.528Z,10.00
2022-09-27T20:21:20.050Z,10.00
2022-09-27T20:23:57.616Z,10.00
2022-09-27T20:26:26.852Z,9.90
2022-09-27T20:28:57.258Z,9.90
2022-09-27T20:31:26.188Z,9.90
2022-09-27T20:33:53.464Z,9.80
2022-09-27T20:36:31.832Z,9.80
2022-09-27T20:39:03.874Z,9.80
2022-09-27T20:41:34.925Z,9.80
2022-09-27T20:44:03.911Z,9.80
2022-09-27T20:46:33.610Z,9.80
2022-09-27T20:49:03.252Z,9.90
2022-09-27T20:51:33.853Z,9.90
2022-09-27T20:54:01.870Z,10.00
2022-09-27T20:56:40.824Z,9.90
2022-09-27T20:59:14.974Z,9.90
2022-09-27T21:01:44.173Z,9.80
2022-09-27T21:04:12.999Z,9.80
2022-09-27T21:06:40.371Z,9.80
2022-09-27T21:09:07.731Z,9.70
2022-09-27T21:11:34.986Z,9.70
2022-09-27T21:14:02.343Z,9.60
2022-09-27T21:16:33.518Z,9.60
2022-09-27T21:19:03.540Z,9.60
2022-09-27T21:21:33.264Z,9.60
2022-09-27T21:24:01.463Z,9.50
2022-09-27T21:26:30.781Z,9.40
2022-09-27T21:28:59.765Z,9.40
2022-09-27T21:31:33.827Z,9.40
2022-09-27T21:34:05.012Z,9.40
2022-09-27T21:36:37.315Z,9.30
2022-09-27T21:39:05.268Z,9.30
2022-09-27T21:41:32.704Z,9.20
2022-09-27T21:44:03.038Z,9.30
2022-09-27T21:46:33.078Z,9.20
2022-09-27T21:49:03.734Z,9.20
2022-09-27T21:51:36.507Z,9.10
2022-09-27T21:54:05.500Z,9.10
2022-09-27T21:56:37.535Z,9.00
2022-09-27T21:59:05.548Z,9.00
2022-09-27T22:01:33.715Z,9.00
2022-09-27T22:04:01.440Z,8.90
2022-09-27T22:06:30.613Z,8.90
2022-09-27T22:08:58.473Z,8.90
2022-09-27T22:11:28.084Z,8.80
2022-09-27T22:13:55.247Z,8.80
2022-09-27T22:16:22.909Z,8.70
2022-09-27T22:18:51.291Z,8.60
2022-09-27T22:21:20.779Z,8.60
2022-09-27T22:23:47.990Z,8.60
2022-09-27T22:26:19.892Z,8.50
2022-09-27T22:28:47.064Z,8.50
2022-09-27T22:31:15.377Z,8.50
2022-09-27T22:33:42.885Z,8.50
2022-09-27T22:36:10.157Z,8.50
2022-09-27T22:38:37.457Z,8.50
2022-09-27T22:41:04.685Z,8.40
2022-09-27T22:43:32.284Z,8.40
2022-09-27T22:46:03.050Z,8.40
2022-09-27T22:48:30.963Z,8.40
2022-09-27T22:50:58.689Z,8.40
2022-09-27T22:53:26.501Z,8.40
2022-09-27T22:56:04.271Z,8.30
2022-09-27T22:58:32.092Z,8.30
2022-09-27T23:01:02.481Z,8.30
2022-09-27T23:03:29.795Z,8.30
2022-09-27T23:06:04.732Z,8.20
2022-09-27T23:08:35.902Z,8.20
2022-09-27T23:11:06.863Z,8.20
2022-09-27T23:13:34.828Z,8.20
2022-09-27T23:16:03.244Z,8.20
2022-09-27T23:18:33.617Z,8.10
2022-09-27T23:21:07.172Z,8.10
2022-09-27T23:23:42.895Z,8.10
2022-09-27T23:26:11.870Z,8.10
2022-09-27T23:28:39.075Z,8.00
2022-09-27T23:31:13.908Z,8.00
2022-09-27T23:33:42.293Z,8.00
2022-09-27T23:36:10.566Z,7.90
2022-09-27T23:38:40.529Z,7.90
2022-09-27T23:41:08.445Z,7.90
2022-09-27T23:43:36.261Z,7.80
2022-09-27T23:46:07.032Z,7.80
2022-09-27T23:48:34.844Z,7.80
2022-09-27T23:51:02.776Z,7.70
2022-09-27T23:53:29.970Z,7.70
2022-09-27T23:56:13.923Z,7.70
2022-09-27T23:58:42.497Z,7.60
